Skip to content
You are here: Gozo Weather
Gozo Weather Station for the very latest live weather conditions from Gozo and Malta
 
 TIME   TEMPERATURE   WINDSPEED   DIRECTION   HUMIDITY   BAROMETER   RAINFALL 
6:10 16.0°C (60.8°F) 0.0 kmh (0.0 mph) WSW 84% 1014.0hPa (29.94 inHg) 3.0mm (0.12 in.)
5:10 15.9°C (60.6 °F) 0.0 kmh (0.0 mph) WSW 84% 1014.0hPa (29.94 inHg) 3.0mm (0.12 in.)
4:10 15.9°C (60.6 °F) 0.0 kmh (0.0 mph) WSW 84% 1014.0hPa (29.94 inHg) 3.0mm (0.12 in.)
3:10 16.1°C (61.0 °F) 0.0 kmh (0.0 mph) WSW 83% 1014.0hPa (29.94 inHg) 3.0mm (0.12 in.)
2:10 16.0°C (60.8 °F) 0.0 kmh (0.0 mph) W 83% 1015.0hPa (29.97 inHg) 3.0mm (0.12 in.)
1:10 16.1°C (61.0 °F) 0.0 kmh (0.0 mph) W 83% 1015.0hPa (29.97 inHg) 3.0mm (0.12 in.)
12:10 16.0°C (60.8 °F) 7.4 kmh (4.6 mph) W 84% 1015.0hPa (29.97 inHg) 3.0mm (0.12 in.)
11:10 15.9°C (60.6 °F) 0.0 kmh (0.0 mph) W 84% 1015.0hPa (29.97 inHg) 3.0mm (0.12 in.)
10:10 15.7°C (60.3 °F) 0.0 kmh (0.0 mph) WSW 85% 1015.0hPa (29.97 inHg) 3.0mm (0.12 in.)
9:10 15.7°C (60.3 °F) 0.0 kmh (0.0 mph) WSW 85% 1015.0hPa (29.97 inHg) 3.0mm (0.12 in.)
8:10 15.9°C (60.6 °F) 0.0 kmh (0.0 mph) WSW 85% 1015.0hPa (29.97 inHg) 3.0mm (0.12 in.)
7:10 16.0°C (60.8 °F) 0.0 kmh (0.0 mph) SW 85% 1015.0hPa (29.97 inHg) 3.0mm (0.12 in.)
6:10 16.1°C (61.0 °F) 0.0 kmh (0.0 mph) WSW 86% 1015.0hPa (29.97 inHg) 3.0mm (0.12 in.)
5:10 16.2°C (61.2 °F) 11.1 kmh (6.9 mph) SW 87% 1015.0hPa (29.97 inHg) 3.0mm (0.12 in.)
4:10 16.3°C (61.3 °F) 11.1 kmh (6.9 mph) SSW 87% 1015.0hPa (29.97 inHg) 3.0mm (0.12 in.)
3:10 16.5°C (61.7 °F) 14.8 kmh (9.2 mph) S 87% 1015.0hPa (29.97 inHg) 3.0mm (0.12 in.)
2:10 16.4°C (61.5 °F) 11.1 kmh (6.9 mph) S 87% 1015.0hPa (29.97 inHg) 3.0mm (0.12 in.)
1:02 16.3°C (61.3 °F) 0.0 kmh (0.0 mph) WSW 87% 1016.0hPa (30.00 inHg) 3.0mm (0.12 in.)
12:02 16.4°C (61.5 °F) 0.0 kmh (0.0 mph) W 87% 1017.0hPa (30.03 inHg) 3.0mm (0.12 in.)
11:02 17.2°C (63.0 °F) 11.1 kmh (6.9 mph) WNW 87% 1017.0hPa (30.03 inHg) 2.0mm (0.08 in.)
10:02 17.5°C (63.5 °F) 13.0 kmh (8.1 mph) NNW 88% 1017.0hPa (30.03 inHg) 0.0mm (0.00 in.)
9:02 17.6°C (63.7 °F) 11.1 kmh (6.9 mph) W 88% 1017.0hPa (30.03 inHg) 0.0mm (0.00 in.)
8:02 17.6°C (63.7 °F) 7.4 kmh (4.6 mph) W 88% 1017.0hPa (30.03 inHg) 0.0mm (0.00 in.)
7:02 17.4°C (63.3 °F) 0.0 kmh (0.0 mph) WSW 88% 1016.0hPa (30.00 inHg) 0.0mm (0.00 in.)

You need the latest version of Flash Player to view some of our content.


Why not download and install the latest version now?
It will only take you a moment and will ensure that you can view all the latest flash designed websites.

Translate this page

Animated Satellite

Click per aprire http://www.gozo.ws/Animation.php
copyright 2014 EUMETSAT

European Lightning Activity


Please click image for full size

Sponsored Links